sensor_id;sensor_type;location;lat;lon;timestamp;P1;durP1;ratioP1;P2;durP2;ratioP2
75488;SDS011;64069;46.396;48.102;2023-08-21T00:01:21;10.20;;;4.43;;
75488;SDS011;64069;46.396;48.102;2023-08-21T00:03:47;12.00;;;4.50;;
75488;SDS011;64069;46.396;48.102;2023-08-21T00:06:19;9.23;;;4.88;;
75488;SDS011;64069;46.396;48.102;2023-08-21T00:08:51;8.13;;;4.75;;
75488;SDS011;64069;46.396;48.102;2023-08-21T00:11:17;11.77;;;5.03;;
75488;SDS011;64069;46.396;48.102;2023-08-21T00:13:49;13.27;;;4.60;;
75488;SDS011;64069;46.396;48.102;2023-08-21T00:16:21;8.45;;;4.53;;
75488;SDS011;64069;46.396;48.102;2023-08-21T00:18:47;7.80;;;4.57;;
75488;SDS011;64069;46.396;48.102;2023-08-21T00:21:19;10.15;;;5.18;;
75488;SDS011;64069;46.396;48.102;2023-08-21T00:23:51;9.25;;;4.30;;
75488;SDS011;64069;46.396;48.102;2023-08-21T00:26:17;10.98;;;5.15;;
75488;SDS011;64069;46.396;48.102;2023-08-21T00:28:49;8.52;;;4.47;;
75488;SDS011;64069;46.396;48.102;2023-08-21T00:31:21;11.25;;;4.57;;
75488;SDS011;64069;46.396;48.102;2023-08-21T00:33:47;9.23;;;5.07;;
75488;SDS011;64069;46.396;48.102;2023-08-21T00:36:19;6.90;;;4.10;;
75488;SDS011;64069;46.396;48.102;2023-08-21T00:38:51;9.82;;;4.38;;
75488;SDS011;64069;46.396;48.102;2023-08-21T00:41:18;8.88;;;4.80;;
75488;SDS011;64069;46.396;48.102;2023-08-21T00:43:50;8.55;;;4.47;;
75488;SDS011;64069;46.396;48.102;2023-08-21T00:46:22;7.95;;;4.00;;
75488;SDS011;64069;46.396;48.102;2023-08-21T00:48:48;10.43;;;4.65;;
75488;SDS011;64069;46.396;48.102;2023-08-21T00:51:27;9.90;;;4.70;;
75488;SDS011;64069;46.396;48.102;2023-08-21T00:54:00;10.27;;;5.07;;
75488;SDS011;64069;46.396;48.102;2023-08-21T00:56:26;7.47;;;4.57;;
75488;SDS011;64069;46.396;48.102;2023-08-21T00:58:59;8.52;;;3.95;;
75488;SDS011;64069;46.396;48.102;2023-08-21T01:01:32;10.77;;;4.35;;
75488;SDS011;64069;46.396;48.102;2023-08-21T01:03:59;8.63;;;4.53;;
75488;SDS011;64069;46.396;48.102;2023-08-21T01:06:31;12.80;;;4.03;;
75488;SDS011;64069;46.396;48.102;2023-08-21T01:12:41;9.05;;;4.68;;
75488;SDS011;64069;46.396;48.102;2023-08-21T01:15:07;9.23;;;4.70;;
75488;SDS011;64069;46.396;48.102;2023-08-21T01:17:36;14.40;;;5.20;;
75488;SDS011;64069;46.396;48.102;2023-08-21T01:20:09;13.27;;;5.18;;
75488;SDS011;64069;46.396;48.102;2023-08-21T01:22:42;20.00;;;5.90;;
75488;SDS011;64069;46.396;48.102;2023-08-21T01:25:11;13.57;;;5.32;;
75488;SDS011;64069;46.396;48.102;2023-08-21T01:27:46;14.20;;;4.82;;
75488;SDS011;64069;46.396;48.102;2023-08-21T01:30:20;12.13;;;4.63;;
75488;SDS011;64069;46.396;48.102;2023-08-21T01:35:40;8.30;;;4.40;;
75488;SDS011;64069;46.396;48.102;2023-08-21T01:38:13;17.52;;;6.35;;
75488;SDS011;64069;46.396;48.102;2023-08-21T01:40:39;19.45;;;4.65;;
75488;SDS011;64069;46.396;48.102;2023-08-21T01:43:12;18.35;;;5.05;;
75488;SDS011;64069;46.396;48.102;2023-08-21T01:45:45;19.58;;;5.05;;
75488;SDS011;64069;46.396;48.102;2023-08-21T01:48:11;18.98;;;5.22;;
75488;SDS011;64069;46.396;48.102;2023-08-21T01:50:43;13.10;;;4.47;;
75488;SDS011;64069;46.396;48.102;2023-08-21T01:53:22;10.18;;;4.75;;
75488;SDS011;64069;46.396;48.102;2023-08-21T01:55:48;11.00;;;4.75;;
75488;SDS011;64069;46.396;48.102;2023-08-21T01:58:20;11.55;;;4.53;;
75488;SDS011;64069;46.396;48.102;2023-08-21T02:00:53;13.95;;;4.82;;
75488;SDS011;64069;46.396;48.102;2023-08-21T02:03:18;10.63;;;5.60;;
75488;SDS011;64069;46.396;48.102;2023-08-21T02:05:50;10.75;;;4.97;;
75488;SDS011;64069;46.396;48.102;2023-08-21T02:08:22;9.60;;;5.10;;
75488;SDS011;64069;46.396;48.102;2023-08-21T02:10:52;25.25;;;5.10;;
75488;SDS011;64069;46.396;48.102;2023-08-21T02:13:24;30.33;;;5.78;;
75488;SDS011;64069;46.396;48.102;2023-08-21T02:15:57;30.73;;;6.18;;
75488;SDS011;64069;46.396;48.102;2023-08-21T02:18:30;57.38;;;7.68;;
75488;SDS011;64069;46.396;48.102;2023-08-21T02:20:56;39.38;;;6.70;;
75488;SDS011;64069;46.396;48.102;2023-08-21T02:23:29;31.48;;;6.57;;
75488;SDS011;64069;46.396;48.102;2023-08-21T02:26:01;34.88;;;6.50;;
75488;SDS011;64069;46.396;48.102;2023-08-21T02:28:27;28.05;;;5.90;;
75488;SDS011;64069;46.396;48.102;2023-08-21T02:31:00;13.68;;;4.65;;
75488;SDS011;64069;46.396;48.102;2023-08-21T02:33:25;19.35;;;4.85;;
75488;SDS011;64069;46.396;48.102;2023-08-21T02:35:57;12.88;;;4.55;;
75488;SDS011;64069;46.396;48.102;2023-08-21T02:38:31;8.32;;;3.90;;
75488;SDS011;64069;46.396;48.102;2023-08-21T02:40:56;9.75;;;4.30;;
75488;SDS011;64069;46.396;48.102;2023-08-21T02:43:28;45.00;;;7.07;;
75488;SDS011;64069;46.396;48.102;2023-08-21T02:46:01;16.48;;;4.55;;
75488;SDS011;64069;46.396;48.102;2023-08-21T02:48:26;24.52;;;5.68;;
75488;SDS011;64069;46.396;48.102;2023-08-21T02:51:06;13.43;;;4.82;;
75488;SDS011;64069;46.396;48.102;2023-08-21T02:53:38;13.48;;;5.10;;
75488;SDS011;64069;46.396;48.102;2023-08-21T02:56:11;13.82;;;4.88;;
75488;SDS011;64069;46.396;48.102;2023-08-21T02:58:37;30.40;;;7.30;;
75488;SDS011;64069;46.396;48.102;2023-08-21T03:01:09;69.82;;;7.95;;
75488;SDS011;64069;46.396;48.102;2023-08-21T03:03:43;32.10;;;6.13;;
75488;SDS011;64069;46.396;48.102;2023-08-21T03:06:08;42.08;;;6.20;;
75488;SDS011;64069;46.396;48.102;2023-08-21T03:08:41;28.05;;;5.43;;
75488;SDS011;64069;46.396;48.102;2023-08-21T03:11:15;18.33;;;5.03;;
75488;SDS011;64069;46.396;48.102;2023-08-21T03:13:40;25.05;;;5.15;;
75488;SDS011;64069;46.396;48.102;2023-08-21T03:16:12;28.98;;;5.75;;
75488;SDS011;64069;46.396;48.102;2023-08-21T03:18:58;19.88;;;5.32;;
75488;SDS011;64069;46.396;48.102;2023-08-21T03:21:32;27.75;;;6.72;;
75488;SDS011;64069;46.396;48.102;2023-08-21T03:23:59;24.63;;;7.03;;
75488;SDS011;64069;46.396;48.102;2023-08-21T03:26:33;25.15;;;8.85;;
75488;SDS011;64069;46.396;48.102;2023-08-21T03:29:05;22.58;;;6.72;;
75488;SDS011;64069;46.396;48.102;2023-08-21T03:31:38;16.30;;;5.03;;
75488;SDS011;64069;46.396;48.102;2023-08-21T03:34:03;22.17;;;5.15;;
75488;SDS011;64069;46.396;48.102;2023-08-21T03:36:35;13.95;;;5.70;;
75488;SDS011;64069;46.396;48.102;2023-08-21T03:39:11;14.60;;;4.57;;
75488;SDS011;64069;46.396;48.102;2023-08-21T03:41:42;10.98;;;4.63;;
75488;SDS011;64069;46.396;48.102;2023-08-21T03:44:15;13.02;;;4.40;;
75488;SDS011;64069;46.396;48.102;2023-08-21T03:46:47;15.85;;;4.95;;
75488;SDS011;64069;46.396;48.102;2023-08-21T03:49:20;8.82;;;4.35;;
75488;SDS011;64069;46.396;48.102;2023-08-21T03:52:06;14.98;;;4.32;;
75488;SDS011;64069;46.396;48.102;2023-08-21T03:54:38;11.80;;;5.72;;
75488;SDS011;64069;46.396;48.102;2023-08-21T03:57:11;15.75;;;6.80;;
75488;SDS011;64069;46.396;48.102;2023-08-21T03:59:37;12.75;;;7.13;;
75488;SDS011;64069;46.396;48.102;2023-08-21T04:02:09;15.32;;;7.13;;
75488;SDS011;64069;46.396;48.102;2023-08-21T04:04:43;17.48;;;6.90;;
75488;SDS011;64069;46.396;48.102;2023-08-21T04:07:10;14.55;;;6.80;;
75488;SDS011;64069;46.396;48.102;2023-08-21T04:09:43;16.92;;;5.55;;
75488;SDS011;64069;46.396;48.102;2023-08-21T04:12:17;17.70;;;5.43;;
75488;SDS011;64069;46.396;48.102;2023-08-21T04:14:43;18.27;;;5.30;;
75488;SDS011;64069;46.396;48.102;2023-08-21T04:17:20;10.38;;;4.65;;
75488;SDS011;64069;46.396;48.102;2023-08-21T04:19:56;13.98;;;5.50;;
75488;SDS011;64069;46.396;48.102;2023-08-21T04:22:22;11.75;;;4.90;;
75488;SDS011;64069;46.396;48.102;2023-08-21T04:24:54;13.38;;;4.97;;
75488;SDS011;64069;46.396;48.102;2023-08-21T04:27:27;48.97;;;7.25;;
75488;SDS011;64069;46.396;48.102;2023-08-21T04:29:53;19.95;;;5.72;;
75488;SDS011;64069;46.396;48.102;2023-08-21T04:32:26;20.00;;;5.53;;
75488;SDS011;64069;46.396;48.102;2023-08-21T04:35:00;60.13;;;7.38;;
75488;SDS011;64069;46.396;48.102;2023-08-21T04:37:26;29.98;;;6.45;;
75488;SDS011;64069;46.396;48.102;2023-08-21T04:40:00;17.58;;;4.93;;
75488;SDS011;64069;46.396;48.102;2023-08-21T04:42:34;12.68;;;4.80;;
75488;SDS011;64069;46.396;48.102;2023-08-21T04:44:59;9.48;;;4.70;;
75488;SDS011;64069;46.396;48.102;2023-08-21T04:47:36;11.10;;;4.32;;
75488;SDS011;64069;46.396;48.102;2023-08-21T04:50:09;10.38;;;4.53;;
75488;SDS011;64069;46.396;48.102;2023-08-21T04:52:42;10.82;;;4.75;;
75488;SDS011;64069;46.396;48.102;2023-08-21T04:55:22;14.70;;;4.70;;
75488;SDS011;64069;46.396;48.102;2023-08-21T04:57:49;17.85;;;5.10;;
75488;SDS011;64069;46.396;48.102;2023-08-21T05:00:23;15.32;;;5.10;;
75488;SDS011;64069;46.396;48.102;2023-08-21T05:02:57;13.65;;;5.22;;
75488;SDS011;64069;46.396;48.102;2023-08-21T05:05:23;13.80;;;5.00;;
75488;SDS011;64069;46.396;48.102;2023-08-21T05:07:56;13.05;;;4.88;;
75488;SDS011;64069;46.396;48.102;2023-08-21T05:10:29;19.35;;;4.80;;
75488;SDS011;64069;46.396;48.102;2023-08-21T05:13:03;9.68;;;5.00;;
75488;SDS011;64069;46.396;48.102;2023-08-21T05:15:29;18.85;;;5.25;;
75488;SDS011;64069;46.396;48.102;2023-08-21T05:18:02;11.93;;;5.10;;
75488;SDS011;64069;46.396;48.102;2023-08-21T05:20:35;19.77;;;5.32;;
75488;SDS011;64069;46.396;48.102;2023-08-21T05:23:01;19.08;;;5.72;;
75488;SDS011;64069;46.396;48.102;2023-08-21T05:25:36;13.55;;;5.25;;
75488;SDS011;64069;46.396;48.102;2023-08-21T05:28:09;21.25;;;6.00;;
75488;SDS011;64069;46.396;48.102;2023-08-21T05:30:35;18.85;;;6.55;;
75488;SDS011;64069;46.396;48.102;2023-08-21T05:33:09;14.40;;;5.50;;
75488;SDS011;64069;46.396;48.102;2023-08-21T05:35:43;15.73;;;5.35;;
75488;SDS011;64069;46.396;48.102;2023-08-21T05:38:09;41.60;;;7.03;;
75488;SDS011;64069;46.396;48.102;2023-08-21T05:40:42;26.75;;;6.25;;
75488;SDS011;64069;46.396;48.102;2023-08-21T05:43:14;27.98;;;6.82;;
75488;SDS011;64069;46.396;48.102;2023-08-21T05:45:42;38.15;;;7.65;;
75488;SDS011;64069;46.396;48.102;2023-08-21T05:48:15;17.70;;;5.50;;
75488;SDS011;64069;46.396;48.102;2023-08-21T05:50:56;24.00;;;6.75;;
75488;SDS011;64069;46.396;48.102;2023-08-21T05:53:30;18.27;;;6.35;;
75488;SDS011;64069;46.396;48.102;2023-08-21T05:56:10;14.45;;;5.18;;
75488;SDS011;64069;46.396;48.102;2023-08-21T05:58:36;14.10;;;5.55;;
75488;SDS011;64069;46.396;48.102;2023-08-21T06:01:10;13.98;;;5.70;;
75488;SDS011;64069;46.396;48.102;2023-08-21T06:03:50;40.30;;;7.38;;
75488;SDS011;64069;46.396;48.102;2023-08-21T06:06:36;14.00;;;5.18;;
75488;SDS011;64069;46.396;48.102;2023-08-21T06:09:09;29.77;;;6.47;;
75488;SDS011;64069;46.396;48.102;2023-08-21T06:11:39;10.13;;;4.70;;
75488;SDS011;64069;46.396;48.102;2023-08-21T06:14:12;9.15;;;5.53;;
75488;SDS011;64069;46.396;48.102;2023-08-21T06:16:44;13.05;;;4.75;;
75488;SDS011;64069;46.396;48.102;2023-08-21T06:19:17;12.43;;;6.00;;
75488;SDS011;64069;46.396;48.102;2023-08-21T06:21:43;16.55;;;4.88;;
75488;SDS011;64069;46.396;48.102;2023-08-21T06:24:16;9.02;;;4.47;;
75488;SDS011;64069;46.396;48.102;2023-08-21T06:26:54;10.73;;;4.13;;
75488;SDS011;64069;46.396;48.102;2023-08-21T06:29:27;8.05;;;4.05;;
75488;SDS011;64069;46.396;48.102;2023-08-21T06:32:00;10.05;;;3.95;;
75488;SDS011;64069;46.396;48.102;2023-08-21T06:34:26;14.10;;;4.20;;
75488;SDS011;64069;46.396;48.102;2023-08-21T06:36:59;35.05;;;5.38;;
75488;SDS011;64069;46.396;48.102;2023-08-21T06:39:34;6.43;;;3.97;;
75488;SDS011;64069;46.396;48.102;2023-08-21T06:42:00;7.60;;;4.18;;
75488;SDS011;64069;46.396;48.102;2023-08-21T06:44:40;6.97;;;4.03;;
75488;SDS011;64069;46.396;48.102;2023-08-21T06:47:13;22.55;;;4.95;;
75488;SDS011;64069;46.396;48.102;2023-08-21T06:49:46;10.35;;;4.25;;
75488;SDS011;64069;46.396;48.102;2023-08-21T06:52:12;16.88;;;4.20;;
75488;SDS011;64069;46.396;48.102;2023-08-21T06:54:44;8.73;;;4.10;;
75488;SDS011;64069;46.396;48.102;2023-08-21T06:57:16;10.38;;;3.53;;
75488;SDS011;64069;46.396;48.102;2023-08-21T06:59:42;17.00;;;4.00;;
75488;SDS011;64069;46.396;48.102;2023-08-21T07:02:15;39.35;;;5.05;;
75488;SDS011;64069;46.396;48.102;2023-08-21T07:04:47;8.57;;;3.75;;
75488;SDS011;64069;46.396;48.102;2023-08-21T07:07:27;87.32;;;10.35;;
75488;SDS011;64069;46.396;48.102;2023-08-21T07:09:53;6.30;;;3.17;;
75488;SDS011;64069;46.396;48.102;2023-08-21T07:12:25;6.60;;;3.47;;
75488;SDS011;64069;46.396;48.102;2023-08-21T07:14:57;9.02;;;3.58;;
75488;SDS011;64069;46.396;48.102;2023-08-21T07:17:30;9.20;;;3.38;;
75488;SDS011;64069;46.396;48.102;2023-08-21T07:19:56;6.53;;;3.10;;
75488;SDS011;64069;46.396;48.102;2023-08-21T07:22:29;6.95;;;2.90;;
75488;SDS011;64069;46.396;48.102;2023-08-21T07:25:02;7.25;;;2.95;;
75488;SDS011;64069;46.396;48.102;2023-08-21T07:27:36;20.98;;;3.80;;
75488;SDS011;64069;46.396;48.102;2023-08-21T07:30:02;11.40;;;2.72;;
75488;SDS011;64069;46.396;48.102;2023-08-21T07:32:35;17.17;;;3.28;;
75488;SDS011;64069;46.396;48.102;2023-08-21T07:35:07;16.77;;;4.10;;
75488;SDS011;64069;46.396;48.102;2023-08-21T07:37:33;20.35;;;5.03;;
75488;SDS011;64069;46.396;48.102;2023-08-21T07:40:06;14.15;;;3.25;;
75488;SDS011;64069;46.396;48.102;2023-08-21T07:42:39;13.15;;;3.40;;
75488;SDS011;64069;46.396;48.102;2023-08-21T07:45:05;17.85;;;3.35;;
75488;SDS011;64069;46.396;48.102;2023-08-21T07:47:38;18.67;;;3.72;;
75488;SDS011;64069;46.396;48.102;2023-08-21T07:50:10;14.68;;;3.60;;
75488;SDS011;64069;46.396;48.102;2023-08-21T07:52:36;14.73;;;3.67;;
75488;SDS011;64069;46.396;48.102;2023-08-21T07:55:09;7.68;;;2.97;;
75488;SDS011;64069;46.396;48.102;2023-08-21T07:57:41;119.82;;;10.95;;
75488;SDS011;64069;46.396;48.102;2023-08-21T08:00:07;23.17;;;3.33;;
75488;SDS011;64069;46.396;48.102;2023-08-21T08:02:41;10.57;;;3.17;;
75488;SDS011;64069;46.396;48.102;2023-08-21T08:05:22;12.48;;;3.42;;
75488;SDS011;64069;46.396;48.102;2023-08-21T08:07:55;9.77;;;2.90;;
75488;SDS011;64069;46.396;48.102;2023-08-21T08:10:20;9.55;;;3.13;;
75488;SDS011;64069;46.396;48.102;2023-08-21T08:12:53;7.63;;;2.42;;
75488;SDS011;64069;46.396;48.102;2023-08-21T08:15:26;9.73;;;3.22;;
75488;SDS011;64069;46.396;48.102;2023-08-21T08:17:53;7.93;;;2.40;;
75488;SDS011;64069;46.396;48.102;2023-08-21T08:20:27;6.28;;;2.83;;
75488;SDS011;64069;46.396;48.102;2023-08-21T08:22:53;6.22;;;1.90;;
75488;SDS011;64069;46.396;48.102;2023-08-21T08:25:25;11.20;;;2.60;;
75488;SDS011;64069;46.396;48.102;2023-08-21T08:27:57;6.75;;;2.88;;
75488;SDS011;64069;46.396;48.102;2023-08-21T08:30:23;16.42;;;3.35;;
75488;SDS011;64069;46.396;48.102;2023-08-21T08:32:56;13.52;;;2.97;;
75488;SDS011;64069;46.396;48.102;2023-08-21T08:35:28;8.27;;;2.70;;
75488;SDS011;64069;46.396;48.102;2023-08-21T08:37:54;9.02;;;2.63;;
75488;SDS011;64069;46.396;48.102;2023-08-21T08:40:27;8.52;;;2.80;;
75488;SDS011;64069;46.396;48.102;2023-08-21T08:42:53;7.30;;;2.45;;
75488;SDS011;64069;46.396;48.102;2023-08-21T08:45:29;6.32;;;2.88;;
75488;SDS011;64069;46.396;48.102;2023-08-21T08:48:05;4.45;;;2.28;;
75488;SDS011;64069;46.396;48.102;2023-08-21T08:50:39;3.60;;;2.03;;
75488;SDS011;64069;46.396;48.102;2023-08-21T08:53:13;22.00;;;3.38;;
75488;SDS011;64069;46.396;48.102;2023-08-21T08:55:39;8.25;;;2.08;;
75488;SDS011;64069;46.396;48.102;2023-08-21T08:58:12;9.57;;;3.13;;
75488;SDS011;64069;46.396;48.102;2023-08-21T09:00:45;11.10;;;3.00;;
75488;SDS011;64069;46.396;48.102;2023-08-21T09:03:13;26.33;;;3.90;;
75488;SDS011;64069;46.396;48.102;2023-08-21T09:05:59;25.42;;;4.10;;
75488;SDS011;64069;46.396;48.102;2023-08-21T09:08:38;13.40;;;2.72;;
75488;SDS011;64069;46.396;48.102;2023-08-21T09:11:10;13.05;;;2.47;;
75488;SDS011;64069;46.396;48.102;2023-08-21T09:13:36;8.23;;;2.90;;
75488;SDS011;64069;46.396;48.102;2023-08-21T09:16:10;12.40;;;2.92;;
75488;SDS011;64069;46.396;48.102;2023-08-21T09:18:48;5.63;;;2.55;;
75488;SDS011;64069;46.396;48.102;2023-08-21T09:21:22;7.10;;;2.50;;
75488;SDS011;64069;46.396;48.102;2023-08-21T09:23:57;9.25;;;2.53;;
75488;SDS011;64069;46.396;48.102;2023-08-21T09:26:24;4.20;;;2.22;;
75488;SDS011;64069;46.396;48.102;2023-08-21T09:28:57;4.82;;;2.30;;
75488;SDS011;64069;46.396;48.102;2023-08-21T09:31:33;5.00;;;2.38;;
75488;SDS011;64069;46.396;48.102;2023-08-21T09:34:02;4.53;;;2.20;;
75488;SDS011;64069;46.396;48.102;2023-08-21T09:36:38;5.25;;;2.10;;
75488;SDS011;64069;46.396;48.102;2023-08-21T09:39:17;4.05;;;2.20;;
75488;SDS011;64069;46.396;48.102;2023-08-21T09:41:45;3.75;;;2.10;;
75488;SDS011;64069;46.396;48.102;2023-08-21T09:44:27;9.57;;;3.60;;
75488;SDS011;64069;46.396;48.102;2023-08-21T09:46:59;8.23;;;2.28;;
75488;SDS011;64069;46.396;48.102;2023-08-21T09:49:27;10.95;;;2.92;;
75488;SDS011;64069;46.396;48.102;2023-08-21T09:52:00;7.40;;;2.20;;
75488;SDS011;64069;46.396;48.102;2023-08-21T09:54:33;22.23;;;2.85;;
75488;SDS011;64069;46.396;48.102;2023-08-21T09:57:03;8.18;;;2.45;;
75488;SDS011;64069;46.396;48.102;2023-08-21T09:59:36;10.02;;;2.95;;
75488;SDS011;64069;46.396;48.102;2023-08-21T10:02:11;10.38;;;2.50;;
75488;SDS011;64069;46.396;48.102;2023-08-21T10:04:38;5.50;;;2.42;;
75488;SDS011;64069;46.396;48.102;2023-08-21T10:07:21;6.10;;;2.20;;
75488;SDS011;64069;46.396;48.102;2023-08-21T10:09:57;3.95;;;2.20;;
75488;SDS011;64069;46.396;48.102;2023-08-21T10:12:23;4.10;;;2.58;;
75488;SDS011;64069;46.396;48.102;2023-08-21T10:14:56;4.72;;;2.20;;
75488;SDS011;64069;46.396;48.102;2023-08-21T10:17:30;7.72;;;2.33;;
75488;SDS011;64069;46.396;48.102;2023-08-21T10:20:06;5.40;;;1.98;;
75488;SDS011;64069;46.396;48.102;2023-08-21T10:22:45;8.60;;;2.70;;
75488;SDS011;64069;46.396;48.102;2023-08-21T10:25:21;5.88;;;2.38;;
75488;SDS011;64069;46.396;48.102;2023-08-21T10:27:58;7.05;;;2.13;;
75488;SDS011;64069;46.396;48.102;2023-08-21T10:30:37;9.82;;;3.00;;
75488;SDS011;64069;46.396;48.102;2023-08-21T10:33:10;7.53;;;4.05;;
75488;SDS011;64069;46.396;48.102;2023-08-21T10:35:36;5.53;;;2.53;;
75488;SDS011;64069;46.396;48.102;2023-08-21T10:40:40;7.80;;;2.90;;
75488;SDS011;64069;46.396;48.102;2023-08-21T10:43:39;11.23;;;3.05;;
75488;SDS011;64069;46.396;48.102;2023-08-21T10:46:13;5.32;;;2.47;;
75488;SDS011;64069;46.396;48.102;2023-08-21T10:48:47;3.80;;;2.40;;
75488;SDS011;64069;46.396;48.102;2023-08-21T10:51:19;6.82;;;2.92;;
75488;SDS011;64069;46.396;48.102;2023-08-21T10:53:52;12.90;;;2.95;;
75488;SDS011;64069;46.396;48.102;2023-08-21T10:56:18;53.65;;;6.10;;
75488;SDS011;64069;46.396;48.102;2023-08-21T10:58:50;17.45;;;4.38;;
75488;SDS011;64069;46.396;48.102;2023-08-21T11:01:23;4.80;;;2.63;;
75488;SDS011;64069;46.396;48.102;2023-08-21T11:03:52;15.02;;;2.92;;
75488;SDS011;64069;46.396;48.102;2023-08-21T11:06:24;48.40;;;6.15;;
75488;SDS011;64069;46.396;48.102;2023-08-21T11:09:04;48.67;;;5.18;;
75488;SDS011;64069;46.396;48.102;2023-08-21T11:11:30;55.50;;;5.85;;
75488;SDS011;64069;46.396;48.102;2023-08-21T11:14:03;18.25;;;3.17;;
75488;SDS011;64069;46.396;48.102;2023-08-21T11:16:35;15.10;;;3.03;;
75488;SDS011;64069;46.396;48.102;2023-08-21T11:19:07;11.27;;;3.13;;
75488;SDS011;64069;46.396;48.102;2023-08-21T11:21:33;20.38;;;4.70;;
75488;SDS011;64069;46.396;48.102;2023-08-21T11:24:06;10.13;;;3.70;;
75488;SDS011;64069;46.396;48.102;2023-08-21T11:26:39;12.43;;;3.30;;
75488;SDS011;64069;46.396;48.102;2023-08-21T11:29:05;11.02;;;3.78;;
75488;SDS011;64069;46.396;48.102;2023-08-21T11:31:38;11.57;;;3.70;;
75488;SDS011;64069;46.396;48.102;2023-08-21T11:34:11;9.52;;;3.60;;
75488;SDS011;64069;46.396;48.102;2023-08-21T11:36:43;8.32;;;3.30;;
75488;SDS011;64069;46.396;48.102;2023-08-21T11:39:09;7.90;;;3.55;;
75488;SDS011;64069;46.396;48.102;2023-08-21T11:41:57;10.63;;;3.33;;
75488;SDS011;64069;46.396;48.102;2023-08-21T11:44:30;5.38;;;2.78;;
75488;SDS011;64069;46.396;48.102;2023-08-21T11:47:02;7.10;;;2.72;;
75488;SDS011;64069;46.396;48.102;2023-08-21T11:49:28;9.60;;;3.10;;
75488;SDS011;64069;46.396;48.102;2023-08-21T11:52:01;6.45;;;3.38;;
75488;SDS011;64069;46.396;48.102;2023-08-21T11:54:35;6.38;;;3.05;;
75488;SDS011;64069;46.396;48.102;2023-08-21T11:57:12;9.13;;;3.30;;
75488;SDS011;64069;46.396;48.102;2023-08-21T11:59:39;5.67;;;3.40;;
75488;SDS011;64069;46.396;48.102;2023-08-21T12:02:16;15.02;;;5.95;;
75488;SDS011;64069;46.396;48.102;2023-08-21T12:05:05;11.88;;;6.43;;
75488;SDS011;64069;46.396;48.102;2023-08-21T12:07:46;19.63;;;6.57;;
75488;SDS011;64069;46.396;48.102;2023-08-21T12:10:12;16.48;;;5.47;;
75488;SDS011;64069;46.396;48.102;2023-08-21T12:12:44;17.90;;;6.18;;
75488;SDS011;64069;46.396;48.102;2023-08-21T12:15:18;9.55;;;4.40;;
75488;SDS011;64069;46.396;48.102;2023-08-21T12:17:51;14.95;;;5.13;;
75488;SDS011;64069;46.396;48.102;2023-08-21T12:20:30;11.80;;;5.25;;
75488;SDS011;64069;46.396;48.102;2023-08-21T12:23:02;14.40;;;5.43;;
75488;SDS011;64069;46.396;48.102;2023-08-21T12:25:36;14.85;;;6.15;;
75488;SDS011;64069;46.396;48.102;2023-08-21T12:28:02;20.33;;;6.30;;
75488;SDS011;64069;46.396;48.102;2023-08-21T12:30:35;20.80;;;5.90;;
75488;SDS011;64069;46.396;48.102;2023-08-21T12:33:09;16.88;;;5.70;;
75488;SDS011;64069;46.396;48.102;2023-08-21T12:35:35;22.17;;;5.38;;
75488;SDS011;64069;46.396;48.102;2023-08-21T12:38:10;9.07;;;4.70;;
75488;SDS011;64069;46.396;48.102;2023-08-21T12:40:44;39.58;;;6.15;;
75488;SDS011;64069;46.396;48.102;2023-08-21T12:43:17;19.65;;;5.13;;
75488;SDS011;64069;46.396;48.102;2023-08-21T12:45:49;31.88;;;6.05;;
75488;SDS011;64069;46.396;48.102;2023-08-21T12:48:15;18.17;;;4.88;;
75488;SDS011;64069;46.396;48.102;2023-08-21T12:50:47;13.57;;;5.07;;
75488;SDS011;64069;46.396;48.102;2023-08-21T12:53:20;27.80;;;5.07;;
75488;SDS011;64069;46.396;48.102;2023-08-21T12:55:46;14.93;;;4.35;;
75488;SDS011;64069;46.396;48.102;2023-08-21T12:58:19;10.65;;;4.43;;
75488;SDS011;64069;46.396;48.102;2023-08-21T13:00:53;7.68;;;4.15;;
75488;SDS011;64069;46.396;48.102;2023-08-21T13:03:19;11.30;;;5.13;;
75488;SDS011;64069;46.396;48.102;2023-08-21T13:05:52;10.93;;;4.80;;
75488;SDS011;64069;46.396;48.102;2023-08-21T13:08:24;12.45;;;4.68;;
75488;SDS011;64069;46.396;48.102;2023-08-21T13:10:50;11.07;;;4.75;;
75488;SDS011;64069;46.396;48.102;2023-08-21T13:13:22;14.80;;;5.10;;
75488;SDS011;64069;46.396;48.102;2023-08-21T13:15:54;16.63;;;5.47;;
75488;SDS011;64069;46.396;48.102;2023-08-21T13:18:27;16.83;;;5.15;;
75488;SDS011;64069;46.396;48.102;2023-08-21T13:21:07;13.52;;;4.70;;
75488;SDS011;64069;46.396;48.102;2023-08-21T13:23:33;14.98;;;5.13;;
75488;SDS011;64069;46.396;48.102;2023-08-21T13:26:06;19.23;;;5.93;;
75488;SDS011;64069;46.396;48.102;2023-08-21T13:28:38;11.23;;;4.60;;
75488;SDS011;64069;46.396;48.102;2023-08-21T13:31:10;9.45;;;4.70;;
75488;SDS011;64069;46.396;48.102;2023-08-21T13:33:46;11.02;;;4.40;;
75488;SDS011;64069;46.396;48.102;2023-08-21T13:36:20;11.25;;;4.97;;
75488;SDS011;64069;46.396;48.102;2023-08-21T13:38:54;20.95;;;5.68;;
75488;SDS011;64069;46.396;48.102;2023-08-21T13:41:27;29.33;;;6.50;;
75488;SDS011;64069;46.396;48.102;2023-08-21T13:44:00;11.55;;;5.32;;
75488;SDS011;64069;46.396;48.102;2023-08-21T13:46:33;19.20;;;5.90;;
75488;SDS011;64069;46.396;48.102;2023-08-21T13:48:59;35.28;;;7.80;;
75488;SDS011;64069;46.396;48.102;2023-08-21T13:51:32;9.55;;;6.07;;
75488;SDS011;64069;46.396;48.102;2023-08-21T13:53:58;12.38;;;6.68;;
75488;SDS011;64069;46.396;48.102;2023-08-21T13:56:31;11.63;;;6.55;;
75488;SDS011;64069;46.396;48.102;2023-08-21T13:59:03;12.50;;;5.97;;
75488;SDS011;64069;46.396;48.102;2023-08-21T14:01:37;15.13;;;5.50;;
75488;SDS011;64069;46.396;48.102;2023-08-21T14:04:04;13.15;;;5.35;;
75488;SDS011;64069;46.396;48.102;2023-08-21T14:06:36;12.77;;;4.75;;
75488;SDS011;64069;46.396;48.102;2023-08-21T14:09:09;15.00;;;5.53;;
75488;SDS011;64069;46.396;48.102;2023-08-21T14:11:35;14.05;;;5.93;;
75488;SDS011;64069;46.396;48.102;2023-08-21T14:14:08;9.00;;;4.65;;
75488;SDS011;64069;46.396;48.102;2023-08-21T14:16:34;10.07;;;4.93;;
75488;SDS011;64069;46.396;48.102;2023-08-21T14:19:13;17.45;;;4.85;;
75488;SDS011;64069;46.396;48.102;2023-08-21T14:21:45;18.67;;;4.95;;
75488;SDS011;64069;46.396;48.102;2023-08-21T14:24:11;14.20;;;4.68;;
75488;SDS011;64069;46.396;48.102;2023-08-21T14:26:44;9.95;;;4.68;;
75488;SDS011;64069;46.396;48.102;2023-08-21T14:29:16;18.48;;;5.43;;
75488;SDS011;64069;46.396;48.102;2023-08-21T14:31:42;9.52;;;5.00;;
75488;SDS011;64069;46.396;48.102;2023-08-21T14:34:14;9.93;;;5.25;;
75488;SDS011;64069;46.396;48.102;2023-08-21T14:36:44;14.30;;;5.80;;
75488;SDS011;64069;46.396;48.102;2023-08-21T14:39:16;20.30;;;6.43;;
75488;SDS011;64069;46.396;48.102;2023-08-21T14:41:53;15.65;;;6.97;;
75488;SDS011;64069;46.396;48.102;2023-08-21T14:44:26;13.27;;;6.70;;
75488;SDS011;64069;46.396;48.102;2023-08-21T14:46:53;16.50;;;6.30;;
75488;SDS011;64069;46.396;48.102;2023-08-21T14:49:26;15.35;;;7.90;;
75488;SDS011;64069;46.396;48.102;2023-08-21T14:51:58;22.40;;;7.22;;
75488;SDS011;64069;46.396;48.102;2023-08-21T14:54:24;18.55;;;7.03;;
75488;SDS011;64069;46.396;48.102;2023-08-21T14:56:57;18.17;;;6.32;;
75488;SDS011;64069;46.396;48.102;2023-08-21T14:59:30;15.25;;;6.45;;
75488;SDS011;64069;46.396;48.102;2023-08-21T15:01:56;12.45;;;6.03;;